sensor_id;sensor_type;location;lat;lon;timestamp;pressure;altitude;pressure_sealevel;temperature;humidity
36932;BME280;22847;42.654;23.370;2023-10-09T00:01:07;95082.69;;;19.55;nan
36932;BME280;22847;42.654;23.370;2023-10-09T00:03:42;95103.16;;;19.68;nan
36932;BME280;22847;42.654;23.370;2023-10-09T00:06:09;95133.34;;;19.74;nan
36932;BME280;22847;42.654;23.370;2023-10-09T00:08:37;95097.00;;;19.61;nan
36932;BME280;22847;42.654;23.370;2023-10-09T00:11:04;95158.66;;;19.83;nan
36932;BME280;22847;42.654;23.370;2023-10-09T00:13:44;94999.63;;;19.07;nan
36932;BME280;22847;42.654;23.370;2023-10-09T00:16:17;95139.38;;;19.89;nan
36932;BME280;22847;42.654;23.370;2023-10-09T00:18:52;95136.66;;;19.82;nan
36932;BME280;22847;42.654;23.370;2023-10-09T00:21:19;95138.75;;;19.66;nan
36932;BME280;22847;42.654;23.370;2023-10-09T00:23:48;95107.56;;;19.61;nan
36932;BME280;22847;42.654;23.370;2023-10-09T00:26:25;95078.13;;;19.28;nan
36932;BME280;22847;42.654;23.370;2023-10-09T00:28:50;95132.13;;;19.55;nan
36932;BME280;22847;42.654;23.370;2023-10-09T00:31:19;94991.78;;;18.78;nan
36932;BME280;22847;42.654;23.370;2023-10-09T00:33:59;95128.00;;;19.67;nan
36932;BME280;22847;42.654;23.370;2023-10-09T00:36:27;95123.94;;;19.50;nan
36932;BME280;22847;42.654;23.370;2023-10-09T00:38:53;94990.31;;;18.54;nan
36932;BME280;22847;42.654;23.370;2023-10-09T00:41:19;95136.50;;;19.27;nan
36932;BME280;22847;42.654;23.370;2023-10-09T00:43:46;95106.50;;;19.20;nan
36932;BME280;22847;42.654;23.370;2023-10-09T00:46:16;95152.78;;;19.30;nan
36932;BME280;22847;42.654;23.370;2023-10-09T00:48:56;95140.00;;;19.34;nan
36932;BME280;22847;42.654;23.370;2023-10-09T00:51:28;95022.53;;;17.91;nan
36932;BME280;22847;42.654;23.370;2023-10-09T00:54:02;95147.75;;;18.99;nan
36932;BME280;22847;42.654;23.370;2023-10-09T00:56:38;95020.59;;;18.44;nan
36932;BME280;22847;42.654;23.370;2023-10-09T00:59:07;95156.13;;;19.17;nan
36932;BME280;22847;42.654;23.370;2023-10-09T01:01:40;95146.56;;;19.02;nan
36932;BME280;22847;42.654;23.370;2023-10-09T01:04:11;95007.22;;;18.31;nan
36932;BME280;22847;42.654;23.370;2023-10-09T01:06:45;94896.34;;;17.13;nan
36932;BME280;22847;42.654;23.370;2023-10-09T01:09:17;95174.53;;;19.11;nan
36932;BME280;22847;42.654;23.370;2023-10-09T01:11:44;95030.72;;;18.25;nan
36932;BME280;22847;42.654;23.370;2023-10-09T01:14:31;95126.53;;;18.78;nan
36932;BME280;22847;42.654;23.370;2023-10-09T01:17:06;95141.81;;;18.83;nan
36932;BME280;22847;42.654;23.370;2023-10-09T01:19:33;95162.34;;;18.95;nan
36932;BME280;22847;42.654;23.370;2023-10-09T01:21:59;95040.66;;;18.09;nan
36932;BME280;22847;42.654;23.370;2023-10-09T01:24:38;95210.47;;;18.91;nan
36932;BME280;22847;42.654;23.370;2023-10-09T01:27:06;95190.09;;;18.91;nan
36932;BME280;22847;42.654;23.370;2023-10-09T01:29:39;95142.81;;;18.52;nan
36932;BME280;22847;42.654;23.370;2023-10-09T01:32:07;95199.59;;;18.34;nan
36932;BME280;22847;42.654;23.370;2023-10-09T01:34:34;95210.06;;;18.42;nan
36932;BME280;22847;42.654;23.370;2023-10-09T01:37:19;95198.94;;;18.54;nan
36932;BME280;22847;42.654;23.370;2023-10-09T01:39:50;95157.88;;;18.29;nan
36932;BME280;22847;42.654;23.370;2023-10-09T01:42:17;95122.75;;;18.14;nan
36932;BME280;22847;42.654;23.370;2023-10-09T01:45:10;95196.53;;;18.07;nan
36932;BME280;22847;42.654;23.370;2023-10-09T01:47:36;95231.13;;;18.35;nan
36932;BME280;22847;42.654;23.370;2023-10-09T01:50:06;95218.81;;;18.05;nan
36932;BME280;22847;42.654;23.370;2023-10-09T01:52:43;95187.97;;;18.05;nan
36932;BME280;22847;42.654;23.370;2023-10-09T01:55:08;95222.31;;;17.97;nan
36932;BME280;22847;42.654;23.370;2023-10-09T01:57:38;95209.56;;;17.86;nan
36932;BME280;22847;42.654;23.370;2023-10-09T02:00:05;95263.94;;;18.18;nan
36932;BME280;22847;42.654;23.370;2023-10-09T02:02:32;95265.03;;;18.01;nan
36932;BME280;22847;42.654;23.370;2023-10-09T02:05:07;95196.75;;;17.75;nan
36932;BME280;22847;42.654;23.370;2023-10-09T02:07:38;95211.22;;;17.87;nan
36932;BME280;22847;42.654;23.370;2023-10-09T02:10:14;95234.66;;;18.05;nan
36932;BME280;22847;42.654;23.370;2023-10-09T02:13:03;95276.16;;;17.88;nan
36932;BME280;22847;42.654;23.370;2023-10-09T02:15:33;95143.72;;;16.77;nan
36932;BME280;22847;42.654;23.370;2023-10-09T02:23:35;95250.91;;;17.24;nan
36932;BME280;22847;42.654;23.370;2023-10-09T02:26:13;95263.66;;;17.43;nan
36932;BME280;22847;42.654;23.370;2023-10-09T02:28:57;95255.75;;;17.43;nan
36932;BME280;22847;42.654;23.370;2023-10-09T02:31:29;95112.88;;;16.47;nan
36932;BME280;22847;42.654;23.370;2023-10-09T02:34:06;95265.00;;;17.39;nan
36932;BME280;22847;42.654;23.370;2023-10-09T02:36:39;95262.63;;;17.13;nan
36932;BME280;22847;42.654;23.370;2023-10-09T02:39:27;95271.66;;;17.27;nan
36932;BME280;22847;42.654;23.370;2023-10-09T02:41:55;95140.06;;;16.23;nan
36932;BME280;22847;42.654;23.370;2023-10-09T02:44:27;95248.00;;;17.03;nan
36932;BME280;22847;42.654;23.370;2023-10-09T02:46:57;95289.66;;;17.15;nan
36932;BME280;22847;42.654;23.370;2023-10-09T02:49:24;95263.22;;;16.76;nan
36932;BME280;22847;42.654;23.370;2023-10-09T02:51:50;95316.22;;;16.89;nan
36932;BME280;22847;42.654;23.370;2023-10-09T02:54:18;95305.16;;;17.02;nan
36932;BME280;22847;42.654;23.370;2023-10-09T02:56:52;95245.78;;;16.75;nan
36932;BME280;22847;42.654;23.370;2023-10-09T02:59:35;95300.75;;;16.86;nan
36932;BME280;22847;42.654;23.370;2023-10-09T03:02:04;95321.31;;;16.91;nan
36932;BME280;22847;42.654;23.370;2023-10-09T03:04:29;95308.34;;;16.73;nan
36932;BME280;22847;42.654;23.370;2023-10-09T03:06:55;95322.47;;;16.80;nan
36932;BME280;22847;42.654;23.370;2023-10-09T03:09:22;95289.41;;;16.62;nan
36932;BME280;22847;42.654;23.370;2023-10-09T03:11:59;95296.97;;;16.73;nan
36932;BME280;22847;42.654;23.370;2023-10-09T03:14:29;95291.72;;;16.73;nan
36932;BME280;22847;42.654;23.370;2023-10-09T03:16:56;95282.47;;;16.85;nan
36932;BME280;22847;42.654;23.370;2023-10-09T03:19:25;95310.75;;;17.07;nan
36932;BME280;22847;42.654;23.370;2023-10-09T03:21:52;95292.34;;;16.91;nan
36932;BME280;22847;42.654;23.370;2023-10-09T03:24:17;95227.88;;;16.22;nan
36932;BME280;22847;42.654;23.370;2023-10-09T03:26:43;95349.47;;;16.90;nan
36932;BME280;22847;42.654;23.370;2023-10-09T03:29:11;95348.00;;;16.80;nan
36932;BME280;22847;42.654;23.370;2023-10-09T03:31:37;95353.94;;;16.82;nan
36932;BME280;22847;42.654;23.370;2023-10-09T03:34:03;95344.69;;;16.86;nan
36932;BME280;22847;42.654;23.370;2023-10-09T03:36:29;95349.81;;;16.87;nan
36932;BME280;22847;42.654;23.370;2023-10-09T03:38:58;95354.25;;;16.87;nan
36932;BME280;22847;42.654;23.370;2023-10-09T03:41:25;95351.44;;;16.80;nan
36932;BME280;22847;42.654;23.370;2023-10-09T03:43:54;95349.50;;;16.74;nan
36932;BME280;22847;42.654;23.370;2023-10-09T03:46:21;95367.41;;;16.71;nan
36932;BME280;22847;42.654;23.370;2023-10-09T03:48:48;95218.16;;;15.74;nan
36932;BME280;22847;42.654;23.370;2023-10-09T03:51:14;95311.44;;;16.20;nan
36932;BME280;22847;42.654;23.370;2023-10-09T03:53:49;95331.53;;;16.45;nan
36932;BME280;22847;42.654;23.370;2023-10-09T03:56:16;95372.97;;;16.35;nan
36932;BME280;22847;42.654;23.370;2023-10-09T03:58:45;95368.72;;;16.34;nan
36932;BME280;22847;42.654;23.370;2023-10-09T04:01:18;95366.06;;;16.42;nan
36932;BME280;22847;42.654;23.370;2023-10-09T04:03:57;95332.50;;;16.28;nan
36932;BME280;22847;42.654;23.370;2023-10-09T04:06:26;95372.81;;;16.37;nan
36932;BME280;22847;42.654;23.370;2023-10-09T04:09:03;95368.50;;;16.20;nan
36932;BME280;22847;42.654;23.370;2023-10-09T04:11:51;95324.91;;;16.17;nan
36932;BME280;22847;42.654;23.370;2023-10-09T04:14:40;95254.84;;;15.76;nan
36932;BME280;22847;42.654;23.370;2023-10-09T04:17:19;95349.59;;;16.16;nan
36932;BME280;22847;42.654;23.370;2023-10-09T04:19:48;95360.91;;;16.08;nan
36932;BME280;22847;42.654;23.370;2023-10-09T04:22:34;95355.97;;;16.05;nan
36932;BME280;22847;42.654;23.370;2023-10-09T04:25:05;95327.63;;;15.75;nan
36932;BME280;22847;42.654;23.370;2023-10-09T04:27:33;95374.31;;;15.81;nan
36932;BME280;22847;42.654;23.370;2023-10-09T04:30:02;95198.63;;;14.77;nan
36932;BME280;22847;42.654;23.370;2023-10-09T04:32:28;95373.47;;;15.81;nan
36932;BME280;22847;42.654;23.370;2023-10-09T04:34:54;95374.69;;;15.94;nan
36932;BME280;22847;42.654;23.370;2023-10-09T04:37:42;95373.06;;;15.93;nan
36932;BME280;22847;42.654;23.370;2023-10-09T04:40:10;95351.34;;;15.91;nan
36932;BME280;22847;42.654;23.370;2023-10-09T04:42:52;95361.63;;;15.77;nan
36932;BME280;22847;42.654;23.370;2023-10-09T04:45:24;95380.25;;;15.91;nan
36932;BME280;22847;42.654;23.370;2023-10-09T04:48:08;95284.25;;;15.37;nan
36932;BME280;22847;42.654;23.370;2023-10-09T04:50:34;95235.75;;;14.56;nan
36932;BME280;22847;42.654;23.370;2023-10-09T04:53:00;95388.56;;;15.11;nan
36932;BME280;22847;42.654;23.370;2023-10-09T04:55:41;95168.94;;;14.24;nan
36932;BME280;22847;42.654;23.370;2023-10-09T04:58:09;95382.47;;;15.62;nan
36932;BME280;22847;42.654;23.370;2023-10-09T05:00:39;95358.03;;;15.78;nan
36932;BME280;22847;42.654;23.370;2023-10-09T05:03:07;95377.66;;;16.07;nan
36932;BME280;22847;42.654;23.370;2023-10-09T05:05:36;95384.22;;;15.95;nan
36932;BME280;22847;42.654;23.370;2023-10-09T05:08:09;95356.56;;;15.83;nan
36932;BME280;22847;42.654;23.370;2023-10-09T05:13:27;95416.72;;;16.28;nan
36932;BME280;22847;42.654;23.370;2023-10-09T05:18:39;95392.41;;;16.34;nan
36932;BME280;22847;42.654;23.370;2023-10-09T05:21:04;95402.72;;;16.28;nan
36932;BME280;22847;42.654;23.370;2023-10-09T05:23:50;95417.41;;;16.46;nan
36932;BME280;22847;42.654;23.370;2023-10-09T05:26:36;95404.72;;;16.42;nan
36932;BME280;22847;42.654;23.370;2023-10-09T05:29:11;95407.41;;;16.58;nan
36932;BME280;22847;42.654;23.370;2023-10-09T05:31:55;95266.97;;;15.77;nan
36932;BME280;22847;42.654;23.370;2023-10-09T05:34:22;95260.69;;;15.53;nan
36932;BME280;22847;42.654;23.370;2023-10-09T05:36:49;95268.66;;;16.67;nan
36932;BME280;22847;42.654;23.370;2023-10-09T05:39:14;95428.09;;;20.17;nan
36932;BME280;22847;42.654;23.370;2023-10-09T05:41:46;95395.50;;;21.99;nan
36932;BME280;22847;42.654;23.370;2023-10-09T05:44:25;95414.69;;;24.91;nan
36932;BME280;22847;42.654;23.370;2023-10-09T05:47:09;95327.28;;;26.33;nan
36932;BME280;22847;42.654;23.370;2023-10-09T05:49:53;95419.75;;;26.41;nan
36932;BME280;22847;42.654;23.370;2023-10-09T05:52:33;95385.59;;;27.02;nan
36932;BME280;22847;42.654;23.370;2023-10-09T05:55:07;95437.69;;;27.60;nan
36932;BME280;22847;42.654;23.370;2023-10-09T05:57:55;95437.81;;;28.34;nan
36932;BME280;22847;42.654;23.370;2023-10-09T06:00:25;95429.72;;;29.26;nan
36932;BME280;22847;42.654;23.370;2023-10-09T06:03:09;95401.25;;;29.92;nan
36932;BME280;22847;42.654;23.370;2023-10-09T06:05:48;95442.72;;;29.79;nan
36932;BME280;22847;42.654;23.370;2023-10-09T06:08:23;95333.22;;;28.23;nan
36932;BME280;22847;42.654;23.370;2023-10-09T06:10:53;95459.75;;;28.20;nan
36932;BME280;22847;42.654;23.370;2023-10-09T06:13:51;95461.25;;;27.39;nan
36932;BME280;22847;42.654;23.370;2023-10-09T06:16:28;95451.34;;;26.98;nan
36932;BME280;22847;42.654;23.370;2023-10-09T06:19:13;95466.84;;;26.24;nan
36932;BME280;22847;42.654;23.370;2023-10-09T06:21:46;95321.97;;;23.97;nan
36932;BME280;22847;42.654;23.370;2023-10-09T06:24:22;95464.69;;;24.57;nan
36932;BME280;22847;42.654;23.370;2023-10-09T06:27:06;95443.28;;;24.26;nan
36932;BME280;22847;42.654;23.370;2023-10-09T06:29:31;95445.91;;;24.32;nan
36932;BME280;22847;42.654;23.370;2023-10-09T06:32:10;95459.31;;;24.64;nan
36932;BME280;22847;42.654;23.370;2023-10-09T06:34:45;95496.19;;;24.22;nan
36932;BME280;22847;42.654;23.370;2023-10-09T06:37:12;95419.56;;;22.99;nan
36932;BME280;22847;42.654;23.370;2023-10-09T06:39:50;95470.88;;;22.33;nan
36932;BME280;22847;42.654;23.370;2023-10-09T06:42:34;95445.56;;;21.74;nan
36932;BME280;22847;42.654;23.370;2023-10-09T06:45:10;95463.22;;;21.89;nan
36932;BME280;22847;42.654;23.370;2023-10-09T06:47:39;95491.91;;;22.34;nan
36932;BME280;22847;42.654;23.370;2023-10-09T06:50:19;95323.44;;;21.40;nan
36932;BME280;22847;42.654;23.370;2023-10-09T06:52:50;95457.53;;;22.26;nan
36932;BME280;22847;42.654;23.370;2023-10-09T06:55:38;95305.31;;;20.88;nan
36932;BME280;22847;42.654;23.370;2023-10-09T06:58:30;95483.44;;;22.11;nan
36932;BME280;22847;42.654;23.370;2023-10-09T07:01:07;95490.66;;;22.23;nan
36932;BME280;22847;42.654;23.370;2023-10-09T07:03:56;95490.59;;;22.51;nan
36932;BME280;22847;42.654;23.370;2023-10-09T07:06:40;95481.72;;;22.85;nan
36932;BME280;22847;42.654;23.370;2023-10-09T07:09:05;95461.50;;;22.91;nan
36932;BME280;22847;42.654;23.370;2023-10-09T07:16:53;95360.56;;;22.69;nan
36932;BME280;22847;42.654;23.370;2023-10-09T07:19:28;95452.75;;;23.43;nan
36932;BME280;22847;42.654;23.370;2023-10-09T07:22:03;95479.22;;;23.58;nan
36932;BME280;22847;42.654;23.370;2023-10-09T07:24:32;95472.19;;;23.24;nan
36932;BME280;22847;42.654;23.370;2023-10-09T07:27:12;95491.44;;;23.26;nan
36932;BME280;22847;42.654;23.370;2023-10-09T07:29:41;95358.75;;;22.70;nan
36932;BME280;22847;42.654;23.370;2023-10-09T07:32:16;95495.59;;;23.68;nan
36932;BME280;22847;42.654;23.370;2023-10-09T07:34:50;95497.59;;;23.26;nan
36932;BME280;22847;42.654;23.370;2023-10-09T07:37:22;95500.03;;;23.21;nan
36932;BME280;22847;42.654;23.370;2023-10-09T07:39:51;95484.44;;;23.11;nan
36932;BME280;22847;42.654;23.370;2023-10-09T07:42:26;95490.41;;;23.20;nan
36932;BME280;22847;42.654;23.370;2023-10-09T07:45:12;95488.13;;;22.56;nan
36932;BME280;22847;42.654;23.370;2023-10-09T07:47:49;95479.91;;;22.86;nan
36932;BME280;22847;42.654;23.370;2023-10-09T07:50:39;95489.25;;;22.75;nan
36932;BME280;22847;42.654;23.370;2023-10-09T07:53:16;95457.16;;;22.77;nan
36932;BME280;22847;42.654;23.370;2023-10-09T07:55:55;95333.94;;;21.55;nan
36932;BME280;22847;42.654;23.370;2023-10-09T07:58:27;95449.50;;;22.13;nan
36932;BME280;22847;42.654;23.370;2023-10-09T08:00:57;95485.78;;;22.34;nan
36932;BME280;22847;42.654;23.370;2023-10-09T08:03:36;95437.69;;;22.22;nan
36932;BME280;22847;42.654;23.370;2023-10-09T08:06:02;95471.25;;;22.71;nan
36932;BME280;22847;42.654;23.370;2023-10-09T08:08:46;95333.03;;;21.75;nan
36932;BME280;22847;42.654;23.370;2023-10-09T08:11:38;95459.84;;;22.36;nan
36932;BME280;22847;42.654;23.370;2023-10-09T08:14:04;95386.00;;;21.84;nan
36932;BME280;22847;42.654;23.370;2023-10-09T08:16:45;95343.22;;;21.65;nan
36932;BME280;22847;42.654;23.370;2023-10-09T08:19:11;95499.84;;;22.68;nan
36932;BME280;22847;42.654;23.370;2023-10-09T08:21:58;95485.28;;;22.51;nan
36932;BME280;22847;42.654;23.370;2023-10-09T08:25:02;95487.19;;;22.71;nan
36932;BME280;22847;42.654;23.370;2023-10-09T08:27:29;95473.56;;;22.93;nan
36932;BME280;22847;42.654;23.370;2023-10-09T08:29:55;95336.31;;;22.25;nan
36932;BME280;22847;42.654;23.370;2023-10-09T08:32:39;95480.56;;;23.07;nan
36932;BME280;22847;42.654;23.370;2023-10-09T08:35:07;95436.56;;;23.05;nan
36932;BME280;22847;42.654;23.370;2023-10-09T08:37:45;95461.34;;;23.05;nan
36932;BME280;22847;42.654;23.370;2023-10-09T08:40:14;95327.47;;;22.05;nan
36932;BME280;22847;42.654;23.370;2023-10-09T08:42:52;95450.03;;;22.90;nan
36932;BME280;22847;42.654;23.370;2023-10-09T08:45:22;95431.22;;;22.92;nan
36932;BME280;22847;42.654;23.370;2023-10-09T08:47:56;95292.81;;;22.39;nan
36932;BME280;22847;42.654;23.370;2023-10-09T08:50:22;95423.47;;;23.36;nan
36932;BME280;22847;42.654;23.370;2023-10-09T08:52:48;95450.25;;;23.15;nan
36932;BME280;22847;42.654;23.370;2023-10-09T08:55:15;95431.84;;;23.00;nan
36932;BME280;22847;42.654;23.370;2023-10-09T08:57:44;95419.97;;;23.03;nan
36932;BME280;22847;42.654;23.370;2023-10-09T09:00:20;95385.34;;;22.83;nan
36932;BME280;22847;42.654;23.370;2023-10-09T09:02:50;95432.69;;;23.40;nan
36932;BME280;22847;42.654;23.370;2023-10-09T09:05:21;95443.94;;;23.29;nan
36932;BME280;22847;42.654;23.370;2023-10-09T09:07:47;95424.91;;;23.39;nan
36932;BME280;22847;42.654;23.370;2023-10-09T09:10:15;95385.81;;;23.00;nan
36932;BME280;22847;42.654;23.370;2023-10-09T09:12:48;95434.34;;;23.41;nan
36932;BME280;22847;42.654;23.370;2023-10-09T09:15:27;95416.31;;;23.37;nan
36932;BME280;22847;42.654;23.370;2023-10-09T09:18:03;95437.00;;;23.61;nan
36932;BME280;22847;42.654;23.370;2023-10-09T09:20:31;95446.03;;;23.53;nan
36932;BME280;22847;42.654;23.370;2023-10-09T09:23:02;95425.31;;;23.23;nan
36932;BME280;22847;42.654;23.370;2023-10-09T09:25:46;95314.50;;;22.36;nan
36932;BME280;22847;42.654;23.370;2023-10-09T09:28:13;95453.16;;;23.27;nan
36932;BME280;22847;42.654;23.370;2023-10-09T09:30:45;95448.06;;;23.32;nan
36932;BME280;22847;42.654;23.370;2023-10-09T09:33:20;95417.34;;;23.09;nan
36932;BME280;22847;42.654;23.370;2023-10-09T09:36:04;95396.22;;;22.95;nan
36932;BME280;22847;42.654;23.370;2023-10-09T09:38:35;95388.66;;;22.92;nan
36932;BME280;22847;42.654;23.370;2023-10-09T09:41:21;95302.88;;;22.63;nan
36932;BME280;22847;42.654;23.370;2023-10-09T09:43:56;95401.75;;;23.20;nan
36932;BME280;22847;42.654;23.370;2023-10-09T09:46:26;95407.50;;;23.30;nan
36932;BME280;22847;42.654;23.370;2023-10-09T09:49:00;95316.63;;;22.93;nan
36932;BME280;22847;42.654;23.370;2023-10-09T09:51:26;95280.63;;;22.71;nan
36932;BME280;22847;42.654;23.370;2023-10-09T09:53:55;95404.25;;;23.28;nan
36932;BME280;22847;42.654;23.370;2023-10-09T09:56:25;95409.75;;;23.39;nan
36932;BME280;22847;42.654;23.370;2023-10-09T09:58:52;95401.78;;;23.52;nan
36932;BME280;22847;42.654;23.370;2023-10-09T10:01:19;95411.00;;;23.56;nan
36932;BME280;22847;42.654;23.370;2023-10-09T10:03:54;95389.88;;;23.29;nan
36932;BME280;22847;42.654;23.370;2023-10-09T10:06:23;95334.03;;;23.09;nan
36932;BME280;22847;42.654;23.370;2023-10-09T10:08:52;95145.25;;;22.10;nan
36932;BME280;22847;42.654;23.370;2023-10-09T10:11:41;95363.69;;;23.52;nan
36932;BME280;22847;42.654;23.370;2023-10-09T10:14:07;95211.88;;;22.55;nan
36932;BME280;22847;42.654;23.370;2023-10-09T10:17:05;95338.31;;;23.23;nan
36932;BME280;22847;42.654;23.370;2023-10-09T10:20:00;95350.59;;;22.98;nan
36932;BME280;22847;42.654;23.370;2023-10-09T10:22:38;95362.25;;;22.90;nan
36932;BME280;22847;42.654;23.370;2023-10-09T10:25:04;95333.41;;;22.94;nan
36932;BME280;22847;42.654;23.370;2023-10-09T10:27:35;95283.03;;;22.59;nan
36932;BME280;22847;42.654;23.370;2023-10-09T10:32:55;95339.16;;;23.04;nan
36932;BME280;22847;42.654;23.370;2023-10-09T10:35:23;95329.91;;;23.06;nan
36932;BME280;22847;42.654;23.370;2023-10-09T10:38:22;95321.09;;;23.19;nan
36932;BME280;22847;42.654;23.370;2023-10-09T10:40:47;95322.75;;;23.20;nan
36932;BME280;22847;42.654;23.370;2023-10-09T10:43:23;95196.34;;;22.32;nan
36932;BME280;22847;42.654;23.370;2023-10-09T10:46:05;95307.19;;;23.24;nan
36932;BME280;22847;42.654;23.370;2023-10-09T10:48:39;95289.97;;;23.33;nan
36932;BME280;22847;42.654;23.370;2023-10-09T10:51:05;95158.94;;;22.14;nan
36932;BME280;22847;42.654;23.370;2023-10-09T10:53:31;95302.91;;;22.70;nan
36932;BME280;22847;42.654;23.370;2023-10-09T10:56:15;95149.69;;;21.84;nan
36932;BME280;22847;42.654;23.370;2023-10-09T10:58:53;95268.56;;;22.82;nan
36932;BME280;22847;42.654;23.370;2023-10-09T11:01:37;95148.41;;;21.79;nan
36932;BME280;22847;42.654;23.370;2023-10-09T11:04:22;95278.78;;;22.85;nan
36932;BME280;22847;42.654;23.370;2023-10-09T11:07:03;95264.25;;;22.81;nan
36932;BME280;22847;42.654;23.370;2023-10-09T11:09:48;95270.16;;;23.22;nan
36932;BME280;22847;42.654;23.370;2023-10-09T11:12:32;95278.31;;;23.53;nan
36932;BME280;22847;42.654;23.370;2023-10-09T11:15:39;95161.09;;;23.09;nan
36932;BME280;22847;42.654;23.370;2023-10-09T11:18:22;95254.03;;;23.81;nan
36932;BME280;22847;42.654;23.370;2023-10-09T11:20:54;95265.00;;;23.47;nan
36932;BME280;22847;42.654;23.370;2023-10-09T11:23:29;95235.72;;;23.40;nan
36932;BME280;22847;42.654;23.370;2023-10-09T11:26:05;95170.50;;;23.18;nan
36932;BME280;22847;42.654;23.370;2023-10-09T11:29:11;95223.59;;;23.58;nan
36932;BME280;22847;42.654;23.370;2023-10-09T11:32:01;95220.50;;;23.61;nan
36932;BME280;22847;42.654;23.370;2023-10-09T11:34:28;95216.66;;;23.43;nan
36932;BME280;22847;42.654;23.370;2023-10-09T11:37:12;95218.34;;;23.31;nan
36932;BME280;22847;42.654;23.370;2023-10-09T11:39:39;95214.97;;;23.62;nan
36932;BME280;22847;42.654;23.370;2023-10-09T11:42:20;95080.97;;;22.86;nan
36932;BME280;22847;42.654;23.370;2023-10-09T11:45:06;95227.47;;;23.62;nan
36932;BME280;22847;42.654;23.370;2023-10-09T11:47:54;95208.22;;;23.60;nan
36932;BME280;22847;42.654;23.370;2023-10-09T11:53:09;95178.19;;;23.39;nan
36932;BME280;22847;42.654;23.370;2023-10-09T11:55:51;95049.94;;;22.53;nan
36932;BME280;22847;42.654;23.370;2023-10-09T11:58:20;95196.22;;;23.31;nan
36932;BME280;22847;42.654;23.370;2023-10-09T12:00:56;95206.00;;;23.43;nan
36932;BME280;22847;42.654;23.370;2023-10-09T12:03:27;95180.53;;;23.67;nan
36932;BME280;22847;42.654;23.370;2023-10-09T12:06:07;95097.97;;;23.29;nan
36932;BME280;22847;42.654;23.370;2023-10-09T12:08:37;95187.28;;;23.70;nan
36932;BME280;22847;42.654;23.370;2023-10-09T12:11:05;95147.94;;;23.72;nan
36932;BME280;22847;42.654;23.370;2023-10-09T12:13:35;95155.41;;;23.88;nan
36932;BME280;22847;42.654;23.370;2023-10-09T12:16:03;95172.19;;;23.95;nan
36932;BME280;22847;42.654;23.370;2023-10-09T12:18:33;95138.25;;;23.84;nan
36932;BME280;22847;42.654;23.370;2023-10-09T12:21:00;95132.47;;;23.55;nan
36932;BME280;22847;42.654;23.370;2023-10-09T12:23:29;94819.72;;;21.57;nan
36932;BME280;22847;42.654;23.370;2023-10-09T12:26:01;95170.81;;;23.86;nan
36932;BME280;22847;42.654;23.370;2023-10-09T12:28:27;95114.63;;;23.63;nan
36932;BME280;22847;42.654;23.370;2023-10-09T12:30:53;95123.81;;;23.67;nan
36932;BME280;22847;42.654;23.370;2023-10-09T12:33:20;95092.84;;;23.72;nan
36932;BME280;22847;42.654;23.370;2023-10-09T12:35:53;95015.25;;;22.93;nan
36932;BME280;22847;42.654;23.370;2023-10-09T12:38:23;94965.44;;;22.68;nan
36932;BME280;22847;42.654;23.370;2023-10-09T12:41:07;95126.81;;;23.77;nan
36932;BME280;22847;42.654;23.370;2023-10-09T12:43:46;95113.53;;;23.70;nan
36932;BME280;22847;42.654;23.370;2023-10-09T12:46:11;95037.78;;;23.28;nan
36932;BME280;22847;42.654;23.370;2023-10-09T12:48:42;95121.41;;;23.90;nan
36932;BME280;22847;42.654;23.370;2023-10-09T12:51:12;95093.94;;;23.89;nan
36932;BME280;22847;42.654;23.370;2023-10-09T12:53:42;95113.91;;;24.05;nan
36932;BME280;22847;42.654;23.370;2023-10-09T12:56:07;95097.88;;;23.42;nan
36932;BME280;22847;42.654;23.370;2023-10-09T12:58:34;95086.97;;;23.64;nan
36932;BME280;22847;42.654;23.370;2023-10-09T13:01:03;95123.53;;;23.75;nan
36932;BME280;22847;42.654;23.370;2023-10-09T13:03:35;94961.94;;;22.75;nan
36932;BME280;22847;42.654;23.370;2023-10-09T13:06:04;95099.41;;;23.70;nan
36932;BME280;22847;42.654;23.370;2023-10-09T13:08:33;95099.41;;;23.70;nan
36932;BME280;22847;42.654;23.370;2023-10-09T13:11:19;94971.41;;;23.08;nan
36932;BME280;22847;42.654;23.370;2023-10-09T13:13:45;95091.94;;;23.85;nan
36932;BME280;22847;42.654;23.370;2023-10-09T13:16:21;95083.50;;;23.88;nan
36932;BME280;22847;42.654;23.370;2023-10-09T13:18:53;95074.03;;;23.92;nan
36932;BME280;22847;42.654;23.370;2023-10-09T13:21:21;94996.44;;;23.32;nan
36932;BME280;22847;42.654;23.370;2023-10-09T13:23:48;95054.03;;;23.83;nan
36932;BME280;22847;42.654;23.370;2023-10-09T13:26:20;95088.16;;;23.99;nan
36932;BME280;22847;42.654;23.370;2023-10-09T13:29:02;95076.72;;;23.92;nan
36932;BME280;22847;42.654;23.370;2023-10-09T13:31:29;95067.53;;;23.88;nan
36932;BME280;22847;42.654;23.370;2023-10-09T13:33:57;95062.56;;;23.91;nan
36932;BME280;22847;42.654;23.370;2023-10-09T13:36:26;94941.41;;;23.26;nan
36932;BME280;22847;42.654;23.370;2023-10-09T13:39:03;95023.53;;;23.79;nan
36932;BME280;22847;42.654;23.370;2023-10-09T13:41:52;95062.69;;;24.03;nan
36932;BME280;22847;42.654;23.370;2023-10-09T13:44:32;94957.06;;;23.41;nan
36932;BME280;22847;42.654;23.370;2023-10-09T13:47:00;94905.88;;;23.14;nan
36932;BME280;22847;42.654;23.370;2023-10-09T13:49:27;95063.19;;;23.93;nan
36932;BME280;22847;42.654;23.370;2023-10-09T13:51:59;95051.56;;;24.13;nan
36932;BME280;22847;42.654;23.370;2023-10-09T13:54:26;94939.44;;;23.40;nan
36932;BME280;22847;42.654;23.370;2023-10-09T13:56:57;95030.50;;;23.80;nan
36932;BME280;22847;42.654;23.370;2023-10-09T13:59:23;95047.59;;;23.66;nan
36932;BME280;22847;42.654;23.370;2023-10-09T14:01:52;95020.34;;;23.70;nan
36932;BME280;22847;42.654;23.370;2023-10-09T14:04:22;95021.31;;;23.76;nan
36932;BME280;22847;42.654;23.370;2023-10-09T14:06:51;95021.22;;;23.89;nan